Time;durP1;ratioP1;P1;durP2;ratioP2;P2;SDS_P1;SDS_P2;PMS_P1;PMS_P2;Temp;Humidity;BMP_temperature;BMP_pressure;BME280_temperature;BME280_humidity;BME280_pressure;Samples;Min_cycle;Max_cycle;Signal;HPM_P1;HPM_P2
2022/02/28 00:02:05;;;;;;;2.80;2.70;;;3.30;78.80;;;;;;5044147;28;20729;-76
2022/02/28 00:04:32;;;;;;;3.13;2.92;;;3.40;79.40;;;;;;5040260;28;20194;-74
2022/02/28 00:06:59;;;;;;;3.03;2.83;;;3.40;79.20;;;;;;5039276;28;20206;-74
2022/02/28 00:09:26;;;;;;;3.10;2.90;;;3.30;79.40;;;;;;5042125;28;20219;-75
2022/02/28 00:11:55;;;;;;;3.25;3.00;;;3.30;79.10;;;;;;5036016;28;20967;-75
2022/02/28 00:14:22;;;;;;;3.30;3.10;;;3.30;79.10;;;;;;5040532;28;20195;-73
2022/02/28 00:16:49;;;;;;;3.30;3.10;;;3.20;79.50;;;;;;5036401;28;20206;-74
2022/02/28 00:19:16;;;;;;;2.72;2.60;;;3.20;79.70;;;;;;5043851;28;20214;-74
2022/02/28 00:21:44;;;;;;;3.20;3.00;;;3.20;79.70;;;;;;5044823;28;20199;-75
2022/02/28 00:24:11;;;;;;;3.17;2.97;;;3.20;80.20;;;;;;5047779;28;20280;-74
2022/02/28 00:26:38;;;;;;;2.95;2.75;;;3.20;80.10;;;;;;5046240;28;20210;-74
2022/02/28 00:29:06;;;;;;;3.40;3.10;;;3.10;79.90;;;;;;5044727;28;20230;-75
2022/02/28 00:31:33;;;;;;;3.13;2.92;;;3.10;79.80;;;;;;5041131;28;20611;-74
2022/02/28 00:34:00;;;;;;;3.50;3.30;;;3.10;80.30;;;;;;5029843;28;20651;-75
2022/02/28 00:36:27;;;;;;;3.35;2.83;;;3.00;80.00;;;;;;5030401;28;20750;-75
2022/02/28 00:38:55;;;;;;;3.47;3.28;;;3.00;79.90;;;;;;5038963;28;20219;-74
2022/02/28 00:41:22;;;;;;;2.72;2.55;;;3.00;80.20;;;;;;5046161;28;20608;-74
2022/02/28 00:43:49;;;;;;;3.17;2.97;;;3.00;80.70;;;;;;5044665;28;20238;-78
2022/02/28 00:46:17;;;;;;;3.20;3.00;;;2.90;80.70;;;;;;5044294;28;20272;-75
2022/02/28 00:48:44;;;;;;;3.13;2.92;;;2.90;80.80;;;;;;5045827;28;20234;-75
2022/02/28 00:51:12;;;;;;;2.80;2.70;;;2.90;80.70;;;;;;5043838;28;20276;-73
2022/02/28 00:53:39;;;;;;;2.70;2.50;;;2.90;80.70;;;;;;5043673;28;20281;-73
2022/02/28 00:56:06;;;;;;;3.38;3.17;;;2.80;81.00;;;;;;5040495;28;20203;-76
2022/02/28 00:58:33;;;;;;;4.53;3.88;;;2.80;81.10;;;;;;5042631;28;20272;-74
2022/02/28 01:01:00;;;;;;;3.13;2.83;;;2.80;81.20;;;;;;5042203;28;20199;-74
2022/02/28 01:03:29;;;;;;;2.85;2.55;;;2.80;80.80;;;;;;5025038;28;20215;-75
2022/02/28 01:05:56;;;;;;;2.88;2.72;;;2.80;81.10;;;;;;5020492;28;20199;-73
2022/02/28 01:08:23;;;;;;;2.63;2.42;;;2.80;81.00;;;;;;5021470;28;20231;-74
2022/02/28 01:10:51;;;;;;;3.10;2.90;;;2.80;81.00;;;;;;5021292;28;20228;-73
2022/02/28 01:13:18;;;;;;;2.92;2.75;;;2.80;81.40;;;;;;5033675;28;20218;-73
2022/02/28 01:15:45;;;;;;;3.20;3.00;;;2.80;81.00;;;;;;5041510;28;21292;-72
2022/02/28 01:18:13;;;;;;;2.60;2.50;;;2.70;80.40;;;;;;5043612;28;20218;-74
2022/02/28 01:20:41;;;;;;;3.13;2.92;;;2.70;80.20;;;;;;5041750;28;20216;-76
2022/02/28 01:23:08;;;;;;;2.60;2.40;;;2.60;80.40;;;;;;5037298;28;20639;-74
2022/02/28 01:25:36;;;;;;;2.38;2.28;;;2.60;81.40;;;;;;5022711;28;20196;-75
2022/02/28 01:28:03;;;;;;;3.20;3.00;;;2.50;81.40;;;;;;5023439;28;20250;-74
2022/02/28 01:30:30;;;;;;;3.05;2.85;;;2.50;81.40;;;;;;5023944;28;20222;-74
2022/02/28 01:32:57;;;;;;;3.00;2.80;;;2.40;81.50;;;;;;5032483;28;20284;-74
2022/02/28 01:35:24;;;;;;;3.17;2.97;;;2.40;81.30;;;;;;5046756;28;20198;-74
2022/02/28 01:37:53;;;;;;;3.08;2.88;;;2.40;81.60;;;;;;5045173;28;20246;-77
2022/02/28 01:40:23;;;;;;;3.30;3.10;;;2.40;81.90;;;;;;5057697;23;20228;-78
2022/02/28 01:42:50;;;;;;;3.33;3.13;;;2.40;81.70;;;;;;5081399;28;20214;-79
2022/02/28 01:45:21;;;;;;;2.92;2.75;;;2.40;82.10;;;;;;5084838;28;20652;-78
2022/02/28 01:47:49;;;;;;;3.10;2.90;;;2.40;82.80;;;;;;5086058;28;20899;-77
2022/02/28 01:50:16;;;;;;;3.30;3.10;;;2.40;80.90;;;;;;5078912;28;20655;-77
2022/02/28 01:52:44;;;;;;;3.08;2.90;;;2.40;80.40;;;;;;5065171;28;20640;-78
2022/02/28 01:55:14;;;;;;;3.35;3.15;;;2.30;80.50;;;;;;5066937;28;20582;-78
2022/02/28 01:57:41;;;;;;;3.22;3.03;;;2.30;80.90;;;;;;5065813;28;20226;-77
2022/02/28 02:00:11;;;;;;;3.35;3.15;;;2.30;81.90;;;;;;5065040;28;20289;-77
2022/02/28 02:02:38;;;;;;;3.15;2.95;;;2.30;81.30;;;;;;5064794;28;20226;-77
2022/02/28 02:05:07;;;;;;;3.17;2.97;;;2.30;81.40;;;;;;5064108;28;20202;-78
2022/02/28 02:07:35;;;;;;;3.40;3.20;;;2.20;81.60;;;;;;5058957;28;20199;-78
2022/02/28 02:10:05;;;;;;;3.13;2.92;;;2.20;81.50;;;;;;5060937;28;20201;-78
2022/02/28 02:12:34;;;;;;;3.03;2.88;;;2.10;81.60;;;;;;5061484;28;20225;-77
2022/02/28 02:15:02;;;;;;;3.42;3.22;;;2.10;82.30;;;;;;5048545;28;20717;-77
2022/02/28 02:17:31;;;;;;;2.85;2.65;;;2.10;82.70;;;;;;5046702;28;20202;-78
2022/02/28 02:19:58;;;;;;;3.08;2.88;;;2.10;82.90;;;;;;5043939;28;20195;-77
2022/02/28 02:22:26;;;;;;;3.30;3.10;;;2.00;83.40;;;;;;5047010;28;20218;-77
2022/02/28 02:24:53;;;;;;;3.40;3.15;;;2.00;83.20;;;;;;5044506;28;20203;-77
2022/02/28 02:27:20;;;;;;;3.50;3.30;;;2.00;83.30;;;;;;5043904;28;20678;-78
2022/02/28 02:29:47;;;;;;;3.13;2.83;;;1.90;83.20;;;;;;5041510;28;20227;-78
2022/02/28 02:32:16;;;;;;;3.17;2.97;;;1.90;83.40;;;;;;5043331;28;20228;-77
2022/02/28 02:34:43;;;;;;;3.42;3.22;;;1.90;83.60;;;;;;5037101;28;20234;-77
2022/02/28 02:37:10;;;;;;;3.15;2.95;;;1.80;83.80;;;;;;5045017;28;20195;-77
2022/02/28 02:39:42;;;;;;;2.95;2.75;;;1.80;83.80;;;;;;5037917;28;20717;-77
2022/02/28 02:42:10;;;;;;;3.35;3.05;;;1.70;83.70;;;;;;5041902;28;20218;-77
2022/02/28 02:44:37;;;;;;;3.38;3.17;;;1.70;83.70;;;;;;5040836;28;20268;-77
2022/02/28 02:47:05;;;;;;;3.30;3.10;;;1.70;84.20;;;;;;5042833;28;20671;-77
2022/02/28 02:49:32;;;;;;;3.45;3.25;;;1.70;84.60;;;;;;5056057;28;20226;-77
2022/02/28 02:51:59;;;;;;;3.38;3.17;;;1.70;84.30;;;;;;5063903;28;20226;-78
2022/02/28 02:54:26;;;;;;;3.30;3.10;;;1.70;84.10;;;;;;5046239;28;20288;-76
2022/02/28 02:56:55;;;;;;;3.22;3.03;;;1.80;84.20;;;;;;5044676;28;20650;-77
2022/02/28 02:59:22;;;;;;;3.20;3.00;;;1.80;83.30;;;;;;5038304;28;20277;-78
2022/02/28 03:01:49;;;;;;;3.70;3.50;;;1.70;83.50;;;;;;5039103;28;20644;-78
2022/02/28 03:04:16;;;;;;;3.50;3.25;;;1.80;83.00;;;;;;5038807;28;20586;-78
2022/02/28 03:06:43;;;;;;;3.72;3.53;;;1.80;83.10;;;;;;5042535;28;20202;-76
2022/02/28 03:09:13;;;;;;;3.50;3.22;;;1.80;83.70;;;;;;5043713;28;20222;-78
2022/02/28 03:11:41;;;;;;;3.40;3.20;;;1.80;84.00;;;;;;5042512;28;20252;-78
2022/02/28 03:14:10;;;;;;;3.53;3.33;;;1.70;83.90;;;;;;5044653;28;20219;-77
2022/02/28 03:16:37;;;;;;;3.10;2.90;;;1.70;83.40;;;;;;5043959;28;20204;-77
2022/02/28 03:19:05;;;;;;;3.90;3.70;;;1.70;83.80;;;;;;5039409;28;20222;-78
2022/02/28 03:21:32;;;;;;;3.42;3.25;;;1.70;84.10;;;;;;5045167;28;20226;-76
2022/02/28 03:24:00;;;;;;;3.47;3.28;;;1.60;84.00;;;;;;5042486;28;20211;-77
2022/02/28 03:26:27;;;;;;;3.53;3.33;;;1.60;84.30;;;;;;5043301;28;20199;-78
2022/02/28 03:28:54;;;;;;;2.80;2.60;;;1.60;84.40;;;;;;5041079;28;20222;-77
2022/02/28 03:31:22;;;;;;;3.60;3.40;;;1.50;84.30;;;;;;5046445;28;20677;-77
2022/02/28 03:33:49;;;;;;;3.45;3.25;;;1.50;84.60;;;;;;5047724;28;20632;-77
2022/02/28 03:36:16;;;;;;;3.80;3.50;;;1.50;84.90;;;;;;5045639;28;20229;-76
2022/02/28 03:38:43;;;;;;;3.65;3.42;;;1.50;85.10;;;;;;5045560;28;20222;-77
2022/02/28 03:41:10;;;;;;;3.70;3.38;;;1.50;85.00;;;;;;5044910;28;20276;-77
2022/02/28 03:43:37;;;;;;;4.13;3.83;;;1.40;85.00;;;;;;5042412;28;20223;-77
2022/02/28 03:46:04;;;;;;;3.63;3.42;;;1.40;84.90;;;;;;5044306;28;20195;-76
2022/02/28 03:48:33;;;;;;;3.60;3.30;;;1.30;85.20;;;;;;5041544;28;20222;-75
2022/02/28 03:51:00;;;;;;;3.80;3.50;;;1.30;85.60;;;;;;5044214;28;20282;-77
2022/02/28 03:53:27;;;;;;;3.10;2.90;;;1.30;86.10;;;;;;5049744;28;20299;-77
2022/02/28 03:55:54;;;;;;;3.25;3.05;;;1.40;85.90;;;;;;5067638;28;20206;-77
2022/02/28 03:58:21;;;;;;;3.42;3.22;;;1.40;85.10;;;;;;5066006;28;20217;-77
2022/02/28 04:00:48;;;;;;;3.75;3.55;;;1.30;85.00;;;;;;5064638;28;20214;-76
2022/02/28 04:03:15;;;;;;;2.90;2.72;;;1.30;85.80;;;;;;5063200;28;20221;-78
2022/02/28 04:05:43;;;;;;;3.13;2.92;;;1.30;86.20;;;;;;5065664;28;20209;-77
2022/02/28 04:08:10;;;;;;;3.53;3.33;;;1.30;84.40;;;;;;5065596;28;20723;-77
2022/02/28 04:10:38;;;;;;;3.63;3.28;;;1.30;84.80;;;;;;5066045;28;20222;-77
2022/02/28 04:13:04;;;;;;;3.15;2.95;;;1.30;85.20;;;;;;5065522;28;20210;-77
2022/02/28 04:15:32;;;;;;;3.53;3.33;;;1.30;85.20;;;;;;5064739;28;20198;-77
2022/02/28 04:17:59;;;;;;;2.80;2.70;;;1.30;85.20;;;;;;5066742;28;20194;-77
2022/02/28 04:20:26;;;;;;;3.63;3.42;;;1.30;85.80;;;;;;5063937;28;20202;-77
2022/02/28 04:22:54;;;;;;;4.00;3.60;;;1.20;86.10;;;;;;5062374;28;20317;-78
2022/02/28 04:25:21;;;;;;;3.13;2.92;;;1.10;85.80;;;;;;5063598;28;20254;-79
2022/02/28 04:27:48;;;;;;;3.45;3.25;;;1.10;86.00;;;;;;5065883;28;20264;-78
2022/02/28 04:30:16;;;;;;;3.60;3.30;;;1.10;85.80;;;;;;5064829;28;20222;-78
2022/02/28 04:32:43;;;;;;;3.30;3.10;;;1.10;86.20;;;;;;5066215;28;20222;-77
2022/02/28 04:35:10;;;;;;;3.58;3.38;;;1.00;86.00;;;;;;5065608;28;20222;-78
2022/02/28 04:37:37;;;;;;;2.65;2.55;;;1.00;86.30;;;;;;5068759;28;20335;-77
2022/02/28 04:40:07;;;;;;;3.13;2.92;;;1.00;86.40;;;;;;5062378;28;20226;-78
2022/02/28 04:42:34;;;;;;;3.35;3.15;;;0.90;86.60;;;;;;5066309;28;20233;-77
2022/02/28 04:45:01;;;;;;;2.78;2.67;;;0.90;86.80;;;;;;5068101;28;20727;-77
2022/02/28 04:47:28;;;;;;;2.95;2.80;;;0.90;87.40;;;;;;5066594;28;20199;-78
2022/02/28 04:49:55;;;;;;;3.03;2.83;;;0.90;87.00;;;;;;5064983;28;20230;-77
2022/02/28 04:52:22;;;;;;;3.53;3.33;;;0.90;86.80;;;;;;5065006;28;20490;-76
2022/02/28 04:54:49;;;;;;;3.85;3.63;;;1.00;87.20;;;;;;5061504;28;20248;-77
2022/02/28 04:57:17;;;;;;;3.80;3.60;;;1.00;86.80;;;;;;5058234;28;20217;-77
2022/02/28 04:59:46;;;;;;;4.20;3.90;;;0.90;86.80;;;;;;5065695;28;20600;-76
2022/02/28 05:02:13;;;;;;;3.25;3.05;;;0.90;86.80;;;;;;5066282;28;20222;-80
2022/02/28 05:04:40;;;;;;;3.70;3.50;;;0.90;87.30;;;;;;5049592;28;20219;-77
2022/02/28 05:07:07;;;;;;;3.17;2.97;;;0.90;87.60;;;;;;5047380;28;20195;-78
2022/02/28 05:09:34;;;;;;;3.60;3.40;;;0.90;87.30;;;;;;5046031;28;20751;-77
2022/02/28 05:12:01;;;;;;;3.78;3.58;;;0.80;88.10;;;;;;5045761;28;20230;-77
2022/02/28 05:14:30;;;;;;;3.33;3.03;;;0.70;88.10;;;;;;5041815;28;20301;-78
2022/02/28 05:16:57;;;;;;;3.42;3.22;;;0.70;87.80;;;;;;5045839;28;20210;-77
2022/02/28 05:19:24;;;;;;;3.55;3.30;;;0.70;87.70;;;;;;5043263;28;20272;-78
2022/02/28 05:21:51;;;;;;;3.50;3.30;;;0.70;87.70;;;;;;5043696;28;20317;-78
2022/02/28 05:24:18;;;;;;;3.15;2.95;;;0.70;87.70;;;;;;5047872;28;20219;-78
2022/02/28 05:26:45;;;;;;;3.60;3.40;;;0.70;87.40;;;;;;5043136;28;20203;-76
2022/02/28 05:29:12;;;;;;;3.47;3.17;;;0.70;87.60;;;;;;5043409;28;20215;-78
2022/02/28 05:31:40;;;;;;;3.63;3.33;;;0.70;87.90;;;;;;5044145;28;20280;-77
2022/02/28 05:34:07;;;;;;;3.50;3.30;;;0.70;87.80;;;;;;5047478;28;20215;-78
2022/02/28 05:36:34;;;;;;;3.90;3.70;;;0.70;88.30;;;;;;5044286;28;20203;-78
2022/02/28 05:39:01;;;;;;;4.03;3.75;;;0.70;88.20;;;;;;5046057;28;20242;-78
2022/02/28 05:41:28;;;;;;;3.75;3.55;;;0.70;88.30;;;;;;5042910;28;20242;-78
2022/02/28 05:43:55;;;;;;;3.70;3.50;;;0.60;87.80;;;;;;5042082;28;20273;-77
2022/02/28 05:46:22;;;;;;;3.38;3.17;;;0.60;87.40;;;;;;5044089;28;20195;-80
2022/02/28 05:48:51;;;;;;;4.32;4.00;;;0.60;87.60;;;;;;5045950;28;20214;-75
2022/02/28 05:51:18;;;;;;;4.80;4.43;;;0.60;87.80;;;;;;5045535;28;20269;-78
2022/02/28 05:53:45;;;;;;;3.63;3.33;;;0.50;87.90;;;;;;5041463;28;20226;-77
2022/02/28 05:56:13;;;;;;;4.93;4.53;;;0.50;88.10;;;;;;5044037;28;20201;-78
2022/02/28 05:58:40;;;;;;;4.55;4.25;;;0.50;88.20;;;;;;5040658;28;20619;-78
2022/02/28 06:01:07;;;;;;;3.83;3.53;;;0.50;87.90;;;;;;5046199;28;20768;-79
2022/02/28 06:03:35;;;;;;;4.32;4.03;;;0.50;88.10;;;;;;5042112;28;20191;-77
2022/02/28 06:06:04;;;;;;;4.38;4.07;;;0.50;87.90;;;;;;5042578;28;20202;-78
2022/02/28 06:08:32;;;;;;;4.10;3.80;;;0.50;87.90;;;;;;5043783;28;20739;-78
2022/02/28 06:10:59;;;;;;;4.18;3.97;;;0.50;87.90;;;;;;5042840;28;20308;-77
2022/02/28 06:13:26;;;;;;;4.20;3.90;;;0.50;88.10;;;;;;5047554;28;20215;-78
2022/02/28 06:15:53;;;;;;;4.43;4.03;;;0.50;88.10;;;;;;5036349;28;20775;-78
2022/02/28 06:18:20;;;;;;;3.67;3.47;;;0.50;88.70;;;;;;5043398;28;20657;-76
2022/02/28 06:20:47;;;;;;;3.47;3.22;;;0.50;90.10;;;;;;5041069;28;20284;-77
2022/02/28 06:23:15;;;;;;;3.30;3.10;;;0.60;90.50;;;;;;5040971;28;20569;-78
2022/02/28 06:25:42;;;;;;;4.30;3.17;;;0.60;89.70;;;;;;5039670;28;20223;-78
2022/02/28 06:28:09;;;;;;;3.92;3.58;;;0.70;88.80;;;;;;5042366;28;20286;-78
2022/02/28 06:30:36;;;;;;;3.45;3.25;;;0.60;88.20;;;;;;5042161;28;20219;-78
2022/02/28 06:33:04;;;;;;;4.22;3.83;;;0.60;87.90;;;;;;5048117;28;20207;-79
2022/02/28 06:35:31;;;;;;;3.63;3.35;;;0.60;88.10;;;;;;5036463;28;20718;-77
2022/02/28 06:37:58;;;;;;;4.05;3.80;;;0.60;88.10;;;;;;5039346;28;20202;-78
2022/02/28 06:40:26;;;;;;;4.07;3.88;;;0.60;88.10;;;;;;5032242;28;20317;-75
2022/02/28 06:42:53;;;;;;;3.70;3.40;;;0.50;88.70;;;;;;5032196;28;21018;-76
2022/02/28 06:45:24;;;;;;;4.07;3.88;;;0.60;88.90;;;;;;5037908;28;20222;-76
2022/02/28 06:47:51;;;;;;;5.00;3.53;;;0.60;89.10;;;;;;5036701;28;20273;-77
2022/02/28 06:50:19;;;;;;;3.65;3.33;;;0.60;89.50;;;;;;5033446;28;20223;-77
2022/02/28 06:52:46;;;;;;;3.70;3.50;;;0.60;89.60;;;;;;5035601;28;20299;-79
2022/02/28 06:55:13;;;;;;;3.65;3.45;;;0.70;90.00;;;;;;5033506;28;20764;-75
2022/02/28 06:57:41;;;;;;;3.55;3.25;;;0.60;90.40;;;;;;5032224;28;20226;-77
2022/02/28 07:00:10;;;;;;;3.55;3.25;;;0.60;90.40;;;;;;5034259;28;20234;-77
2022/02/28 07:02:37;;;;;;;4.20;4.00;;;0.60;90.20;;;;;;5035536;28;20211;-78
2022/02/28 07:05:04;;;;;;;4.15;3.95;;;0.60;90.30;;;;;;5036746;28;20723;-78
2022/02/28 07:07:32;;;;;;;3.47;3.28;;;0.60;90.20;;;;;;5035309;28;20191;-77
2022/02/28 07:10:00;;;;;;;3.47;3.28;;;0.70;89.90;;;;;;5035798;28;20215;-76
2022/02/28 07:12:27;;;;;;;4.10;3.80;;;0.70;89.10;;;;;;5037004;28;20994;-78
2022/02/28 07:14:55;;;;;;;4.60;4.30;;;0.80;89.00;;;;;;5035834;28;20233;-77
2022/02/28 07:17:23;;;;;;;4.43;3.90;;;1.40;88.70;;;;;;5040581;28;20199;-78
2022/02/28 07:19:51;;;;;;;4.07;3.83;;;2.40;87.80;;;;;;5038030;28;20697;-78
2022/02/28 07:22:18;;;;;;;3.95;3.72;;;3.50;86.10;;;;;;5037842;28;20222;-78
2022/02/28 07:24:45;;;;;;;3.47;3.17;;;4.60;83.60;;;;;;5038143;28;20223;-76
2022/02/28 07:27:12;;;;;;;4.35;4.05;;;5.50;81.10;;;;;;5043978;28;20190;-79
2022/02/28 07:29:39;;;;;;;4.10;3.80;;;6.10;79.10;;;;;;5035841;28;20896;-77
2022/02/28 07:32:08;;;;;;;4.38;4.03;;;6.60;78.70;;;;;;5032862;28;20656;-79
2022/02/28 07:34:35;;;;;;;4.22;3.90;;;6.80;77.90;;;;;;5032475;28;20690;-77
2022/02/28 07:37:02;;;;;;;4.25;3.95;;;6.70;77.80;;;;;;5036169;28;20444;-77
2022/02/28 07:39:31;;;;;;;7.22;4.43;;;6.80;77.90;;;;;;5031760;28;20225;-78
2022/02/28 07:42:00;;;;;;;4.88;4.47;;;6.80;78.10;;;;;;5057653;22;20226;-72
2022/02/28 07:44:29;;;;;;;4.13;3.83;;;7.10;78.60;;;;;;5052666;28;20317;-76
2022/02/28 07:46:56;;;;;;;3.70;3.40;;;7.20;76.60;;;;;;5063322;28;20202;-74
2022/02/28 07:49:25;;;;;;;3.97;3.67;;;7.50;75.90;;;;;;5061165;28;20250;-74
2022/02/28 07:51:52;;;;;;;7.20;4.50;;;7.60;75.90;;;;;;5046691;28;20791;-74
2022/02/28 07:54:19;;;;;;;4.53;4.10;;;7.60;74.90;;;;;;5042375;28;20223;-78
2022/02/28 07:56:46;;;;;;;3.75;3.45;;;7.50;75.20;;;;;;5035371;28;20504;-75
2022/02/28 07:59:13;;;;;;;3.53;3.22;;;7.70;75.90;;;;;;5044743;28;20244;-74
2022/02/28 08:01:40;;;;;;;5.40;4.20;;;7.80;76.10;;;;;;5059259;28;20836;-74
2022/02/28 08:04:07;;;;;;;3.88;3.58;;;8.00;77.50;;;;;;5059694;28;20197;-75
2022/02/28 08:06:37;;;;;;;4.78;4.30;;;8.10;76.10;;;;;;5058986;28;20197;-76
2022/02/28 08:09:04;;;;;;;4.07;3.75;;;8.10;76.30;;;;;;5058212;28;20247;-74
2022/02/28 08:11:31;;;;;;;3.60;3.03;;;8.00;75.30;;;;;;5061337;28;20189;-73
2022/02/28 08:13:58;;;;;;;4.10;3.58;;;8.00;76.40;;;;;;5062779;28;21763;-75
2022/02/28 08:16:25;;;;;;;4.07;3.78;;;8.00;76.60;;;;;;5057654;28;20202;-79
2022/02/28 08:18:52;;;;;;;3.83;3.60;;;8.50;76.60;;;;;;5057016;28;20195;-75
2022/02/28 08:21:19;;;;;;;3.75;3.28;;;9.00;76.00;;;;;;5060760;28;20233;-77
2022/02/28 08:23:48;;;;;;;4.25;3.85;;;9.40;73.90;;;;;;5061931;28;20651;-81
2022/02/28 08:26:15;;;;;;;3.55;3.25;;;9.60;74.40;;;;;;5062781;28;20721;-82
2022/02/28 08:28:42;;;;;;;4.45;4.05;;;9.70;74.20;;;;;;5065122;28;20201;-74
2022/02/28 08:31:09;;;;;;;3.67;3.17;;;9.90;74.40;;;;;;5058280;28;20501;-75
2022/02/28 08:33:36;;;;;;;4.15;3.85;;;10.00;73.60;;;;;;5066155;28;20225;-79
2022/02/28 08:36:03;;;;;;;3.42;3.22;;;9.80;72.60;;;;;;5059697;28;20218;-79
2022/02/28 08:38:30;;;;;;;3.47;3.25;;;9.60;72.10;;;;;;5059375;28;20195;-76
2022/02/28 08:40:59;;;;;;;4.70;3.20;;;9.30;72.30;;;;;;5056527;28;20244;-76
2022/02/28 08:43:26;;;;;;;4.90;3.50;;;9.20;72.90;;;;;;5056528;28;20230;-74
2022/02/28 08:45:53;;;;;;;4.30;3.67;;;9.10;71.80;;;;;;5058532;28;21079;-78
2022/02/28 08:48:20;;;;;;;3.40;3.10;;;8.70;72.00;;;;;;5080384;28;20198;-77
2022/02/28 08:50:48;;;;;;;3.33;3.10;;;8.90;74.10;;;;;;5061367;28;20263;-75
2022/02/28 08:53:15;;;;;;;3.95;2.90;;;9.20;74.10;;;;;;5062841;28;20222;-76
2022/02/28 08:55:42;;;;;;;3.70;3.40;;;9.70;75.40;;;;;;5062545;28;20235;-77
2022/02/28 08:58:10;;;;;;;3.50;3.20;;;10.00;72.90;;;;;;5056203;28;20202;-74
2022/02/28 09:00:37;;;;;;;3.20;3.00;;;10.80;72.40;;;;;;5060102;28;20218;-73
2022/02/28 09:03:07;;;;;;;3.35;3.05;;;11.00;70.80;;;;;;5061201;28;20242;-76
2022/02/28 09:05:34;;;;;;;4.35;3.67;;;11.00;71.20;;;;;;5058587;28;20210;-77
2022/02/28 09:08:01;;;;;;;3.65;3.35;;;11.10;69.60;;;;;;5060689;28;20293;-75
2022/02/28 09:10:28;;;;;;;3.15;2.88;;;11.10;68.10;;;;;;5061099;28;20222;-74
2022/02/28 09:12:55;;;;;;;3.20;2.97;;;11.30;68.20;;;;;;5060776;28;20463;-77
2022/02/28 09:15:24;;;;;;;2.80;2.60;;;11.40;68.60;;;;;;5062686;28;20234;-74
2022/02/28 09:17:51;;;;;;;4.70;3.03;;;11.50;68.20;;;;;;5061456;28;20202;-74
2022/02/28 09:20:18;;;;;;;3.25;3.00;;;11.70;69.20;;;;;;5059109;28;20704;-79
2022/02/28 09:22:45;;;;;;;3.42;3.10;;;11.80;68.80;;;;;;5059803;28;20230;-74
2022/02/28 09:25:12;;;;;;;3.55;3.20;;;12.10;67.50;;;;;;5057874;28;20215;-75
2022/02/28 09:27:40;;;;;;;3.00;2.70;;;12.00;66.10;;;;;;5059806;28;20778;-75
2022/02/28 09:30:08;;;;;;;3.38;2.80;;;11.90;66.20;;;;;;5057356;28;20226;-75
2022/02/28 09:32:37;;;;;;;3.30;3.10;;;11.90;64.60;;;;;;5060330;28;20214;-74
2022/02/28 09:35:04;;;;;;;3.40;3.10;;;11.80;64.20;;;;;;5059737;28;20214;-72
2022/02/28 09:37:31;;;;;;;3.08;2.88;;;11.70;63.00;;;;;;5058621;28;20452;-77
2022/02/28 09:39:59;;;;;;;2.90;2.70;;;11.50;64.80;;;;;;5072125;28;20237;-74
2022/02/28 09:42:26;;;;;;;3.28;2.63;;;11.80;65.20;;;;;;5074856;28;20233;-75
2022/02/28 09:44:55;;;;;;;2.83;2.63;;;11.80;63.60;;;;;;5060019;28;20229;-75
2022/02/28 09:47:22;;;;;;;2.88;2.58;;;11.60;63.60;;;;;;5061701;28;20621;-74
2022/02/28 09:49:52;;;;;;;3.13;2.83;;;11.40;61.50;;;;;;5061948;28;20221;-75
2022/02/28 09:52:19;;;;;;;4.18;2.80;;;11.30;64.20;;;;;;5060558;28;20342;-72
2022/02/28 09:54:50;;;;;;;3.50;3.00;;;11.20;63.50;;;;;;5061246;28;20222;-74
2022/02/28 09:57:21;;;;;;;3.22;2.67;;;11.50;65.90;;;;;;5060939;28;20431;-75
2022/02/28 09:59:48;;;;;;;3.17;2.90;;;11.60;65.70;;;;;;5058245;28;20221;-75
2022/02/28 10:02:15;;;;;;;3.38;2.97;;;11.40;64.40;;;;;;5060770;28;20221;-74
2022/02/28 10:04:43;;;;;;;3.70;3.35;;;11.10;64.20;;;;;;5058236;28;20967;-74
2022/02/28 10:07:23;;;;;;;3.40;2.70;;;11.10;65.40;;;;;;5057882;28;20198;-72
2022/02/28 10:10:07;;;;;;;3.08;2.75;;;11.70;67.80;;;;;;5059187;28;20225;-77
2022/02/28 10:12:35;;;;;;;3.10;2.80;;;12.40;66.50;;;;;;5059077;28;20318;-75
2022/02/28 10:15:07;;;;;;;3.05;2.80;;;12.70;66.00;;;;;;5062166;28;20674;-75
2022/02/28 10:17:45;;;;;;;3.10;2.90;;;13.00;65.60;;;;;;5059645;28;20566;-75
2022/02/28 10:20:18;;;;;;;4.20;3.00;;;13.10;65.30;;;;;;5059784;28;20218;-73
2022/02/28 10:22:46;;;;;;;3.15;2.92;;;13.00;65.00;;;;;;5062766;28;20665;-76
2022/02/28 10:25:31;;;;;;;3.08;2.88;;;12.90;64.30;;;;;;5064110;28;20251;-76
2022/02/28 10:28:12;;;;;;;3.25;2.95;;;12.90;64.20;;;;;;5060782;28;20206;-75
2022/02/28 10:30:41;;;;;;;3.63;2.80;;;12.60;61.80;;;;;;5056324;28;20222;-73
2022/02/28 10:33:09;;;;;;;3.38;2.58;;;12.60;64.00;;;;;;5059146;28;20218;-75
2022/02/28 10:38:27;;;;;;;2.47;2.35;;;12.60;63.00;;;;;;5062899;28;20197;-75
2022/02/28 10:40:54;;;;;;;2.78;2.58;;;12.50;62.20;;;;;;5060077;28;20504;-74
2022/02/28 10:43:26;;;;;;;4.97;2.40;;;12.60;62.70;;;;;;5060665;28;20708;-75
2022/02/28 10:45:54;;;;;;;3.30;2.80;;;12.80;63.00;;;;;;5063148;28;20221;-74
2022/02/28 10:48:21;;;;;;;2.75;2.50;;;12.60;62.50;;;;;;5061240;28;20556;-73
2022/02/28 10:50:50;;;;;;;2.60;2.40;;;12.50;63.50;;;;;;5060314;28;20225;-74
2022/02/28 10:53:19;;;;;;;2.95;2.63;;;12.90;63.70;;;;;;5064687;28;20242;-76
2022/02/28 10:55:50;;;;;;;3.15;2.85;;;12.90;63.20;;;;;;5059395;28;20715;-78
2022/02/28 10:58:20;;;;;;;2.53;2.33;;;13.00;62.20;;;;;;5065208;28;20194;-74
2022/02/28 11:00:55;;;;;;;3.10;2.83;;;13.20;62.80;;;;;;5058756;28;20218;-75
2022/02/28 11:03:22;;;;;;;3.00;2.70;;;13.00;61.20;;;;;;5059697;28;20217;-74
2022/02/28 11:05:54;;;;;;;4.07;2.70;;;12.90;62.50;;;;;;5058770;28;20218;-75
2022/02/28 11:08:24;;;;;;;3.10;2.60;;;13.20;62.40;;;;;;5061422;28;20202;-74
2022/02/28 11:10:55;;;;;;;3.63;3.08;;;13.50;63.20;;;;;;5058214;28;20789;-75
2022/02/28 11:13:23;;;;;;;3.08;2.88;;;13.60;59.80;;;;;;5056484;28;20743;-75
2022/02/28 11:15:50;;;;;;;3.03;2.75;;;13.60;62.30;;;;;;5060133;28;20260;-76
2022/02/28 11:18:20;;;;;;;2.70;2.50;;;13.80;61.60;;;;;;5060860;28;20202;-77
2022/02/28 11:20:49;;;;;;;2.90;2.70;;;13.80;60.50;;;;;;5058828;28;20222;-75
2022/02/28 11:23:19;;;;;;;3.42;2.47;;;13.90;61.30;;;;;;5062433;28;20217;-73
2022/02/28 11:25:47;;;;;;;2.92;2.70;;;13.70;61.60;;;;;;5056459;28;20648;-75
2022/02/28 11:28:17;;;;;;;3.08;2.80;;;13.70;62.30;;;;;;5059259;28;20257;-74
2022/02/28 11:30:45;;;;;;;2.60;2.40;;;13.70;62.20;;;;;;5058423;28;20215;-75
2022/02/28 11:33:15;;;;;;;5.72;2.70;;;14.00;63.50;;;;;;5062915;28;20225;-75
2022/02/28 11:35:49;;;;;;;3.00;2.72;;;13.90;60.40;;;;;;5061957;28;21595;-79
2022/02/28 11:38:42;;;;;;;2.92;2.70;;;13.70;59.80;;;;;;5060377;28;20198;-73
2022/02/28 11:41:10;;;;;;;2.40;2.20;;;13.70;61.50;;;;;;5056173;28;20231;-77
2022/02/28 11:43:40;;;;;;;5.22;2.70;;;13.80;61.10;;;;;;5058885;28;20968;-77
2022/02/28 11:46:20;;;;;;;2.88;2.67;;;14.10;61.70;;;;;;5060561;28;20260;-75
2022/02/28 11:48:50;;;;;;;3.10;2.80;;;14.30;62.70;;;;;;5060697;28;20194;-76
2022/02/28 11:51:31;;;;;;;3.47;3.25;;;14.40;61.70;;;;;;5064433;28;20222;-76
2022/02/28 11:54:00;;;;;;;3.05;2.75;;;14.50;61.60;;;;;;5062288;28;20206;-77
2022/02/28 11:56:58;;;;;;;2.50;2.30;;;14.60;60.40;;;;;;5068075;28;20732;-75
2022/02/28 11:59:33;;;;;;;2.78;2.58;;;14.80;60.70;;;;;;5067630;28;20304;-73
2022/02/28 12:02:20;;;;;;;3.35;2.55;;;14.60;58.80;;;;;;5064304;28;20286;-74
2022/02/28 12:04:47;;;;;;;2.53;2.33;;;14.50;58.70;;;;;;5068883;28;20229;-75
2022/02/28 12:07:29;;;;;;;4.55;2.40;;;14.40;58.00;;;;;;5069573;28;20716;-76
2022/02/28 12:10:08;;;;;;;4.97;2.63;;;14.30;59.00;;;;;;5071355;28;20198;-76
2022/02/28 12:12:36;;;;;;;2.38;2.17;;;14.50;59.00;;;;;;5064486;28;20227;-77
2022/02/28 12:15:17;;;;;;;3.33;2.90;;;14.70;60.00;;;;;;5074581;28;20215;-73
2022/02/28 12:18:18;;;;;;;2.38;2.17;;;14.90;60.80;;;;;;5069074;28;20199;-74
2022/02/28 12:21:05;;;;;;;2.92;2.70;;;14.90;59.50;;;;;;5071944;28;20779;-77
2022/02/28 12:23:32;;;;;;;3.08;2.78;;;14.90;60.20;;;;;;5076004;28;20211;-77
2022/02/28 12:26:08;;;;;;;2.58;2.38;;;15.00;59.40;;;;;;5064300;28;20229;-76
2022/02/28 12:28:44;;;;;;;2.70;2.47;;;15.00;60.40;;;;;;5066442;28;20198;-77
2022/02/28 12:31:18;;;;;;;2.53;2.33;;;15.40;60.00;;;;;;5066189;28;20591;-75
2022/02/28 12:34:03;;;;;;;2.47;2.33;;;15.90;59.40;;;;;;5064655;28;20198;-78
2022/02/28 12:36:31;;;;;;;3.10;2.80;;;16.10;59.10;;;;;;5071128;28;20226;-75
2022/02/28 12:39:01;;;;;;;2.65;2.45;;;16.00;59.00;;;;;;5062636;28;20202;-72
2022/02/28 12:41:30;;;;;;;4.85;2.10;;;15.90;58.60;;;;;;5064696;28;20599;-76
2022/02/28 12:43:59;;;;;;;2.88;2.67;;;15.80;56.90;;;;;;5070061;28;20206;-76
2022/02/28 12:46:29;;;;;;;2.35;2.25;;;15.50;56.90;;;;;;5062270;28;20448;-75
2022/02/28 12:48:57;;;;;;;3.17;2.70;;;15.70;58.00;;;;;;5063794;28;20195;-75
2022/02/28 12:51:28;;;;;;;2.88;2.67;;;15.80;56.10;;;;;;5066150;28;20740;-75
2022/02/28 12:54:03;;;;;;;2.58;2.38;;;15.40;56.00;;;;;;5068314;28;20198;-74
2022/02/28 12:56:30;;;;;;;3.03;2.45;;;15.30;55.80;;;;;;5064286;28;20622;-73
2022/02/28 12:58:58;;;;;;;3.10;2.88;;;15.20;56.80;;;;;;5058890;28;20199;-75
2022/02/28 13:01:28;;;;;;;2.40;2.20;;;15.20;56.70;;;;;;5061736;28;20222;-74
2022/02/28 13:03:57;;;;;;;4.35;2.67;;;15.20;56.70;;;;;;5066357;28;20198;-75